Time;durP1;ratioP1;P1;durP2;ratioP2;P2;SDS_P1;SDS_P2;PMS_P1;PMS_P2;Temp;Humidity;BMP_temperature;BMP_pressure;BME280_temperature;BME280_humidity;BME280_pressure;Samples;Min_cycle;Max_cycle;Signal;HPM_P1;HPM_P2
2022/04/05 00:00:00;;;;;;;4.97;1.70;;;7.40;99.90;;;;;;5039400;28;20049;-66
2022/04/05 00:02:25;;;;;;;3.97;1.80;;;7.40;99.90;;;;;;5057544;28;20102;-66
2022/04/05 00:04:51;;;;;;;5.65;1.60;;;7.50;99.90;;;;;;5056541;28;20037;-67
2022/04/05 00:07:17;;;;;;;5.97;1.58;;;7.50;99.90;;;;;;5056261;28;20113;-66
2022/04/05 00:09:42;;;;;;;3.65;1.52;;;7.50;99.90;;;;;;5056017;28;20048;-66
2022/04/05 00:12:08;;;;;;;4.60;1.58;;;7.40;99.90;;;;;;5056959;28;20037;-66
2022/04/05 00:14:34;;;;;;;6.25;1.55;;;7.40;99.90;;;;;;5057581;28;20039;-66
2022/04/05 00:17:01;;;;;;;7.43;1.83;;;7.40;99.90;;;;;;5057403;28;20469;-66
2022/04/05 00:19:26;;;;;;;8.13;1.80;;;7.40;99.90;;;;;;5056866;28;20037;-66
2022/04/05 00:21:54;;;;;;;5.68;1.50;;;7.40;99.90;;;;;;5055940;28;20041;-67
2022/04/05 00:24:20;;;;;;;6.80;1.83;;;7.40;99.90;;;;;;5057245;28;20056;-66
2022/04/05 00:26:46;;;;;;;5.28;1.80;;;7.40;99.90;;;;;;5055895;28;20500;-66
2022/04/05 00:29:11;;;;;;;6.05;1.70;;;7.40;99.90;;;;;;5056465;28;20036;-66
2022/04/05 00:31:37;;;;;;;6.25;1.63;;;7.40;99.90;;;;;;5056485;28;20072;-66
2022/04/05 00:34:03;;;;;;;4.47;1.60;;;7.40;99.90;;;;;;5055758;28;20044;-67
2022/04/05 00:36:29;;;;;;;6.20;1.60;;;7.40;99.90;;;;;;5055786;28;20129;-66
2022/04/05 00:38:54;;;;;;;5.32;1.55;;;7.40;99.90;;;;;;5056833;28;20113;-67
2022/04/05 00:41:20;;;;;;;6.20;1.83;;;7.30;99.90;;;;;;5055454;28;20052;-66
2022/04/05 00:43:46;;;;;;;5.43;1.50;;;7.40;99.90;;;;;;5056781;28;20045;-66
2022/04/05 00:46:12;;;;;;;6.13;1.50;;;7.30;99.90;;;;;;5056428;28;20354;-66
2022/04/05 00:48:43;;;;;;;5.78;1.85;;;7.30;99.90;;;;;;5056418;28;20048;-66
2022/04/05 00:51:09;;;;;;;6.68;1.70;;;7.30;99.90;;;;;;5054423;28;20075;-66
2022/04/05 00:53:34;;;;;;;4.95;1.80;;;7.30;99.90;;;;;;5056640;28;20040;-66
2022/04/05 00:56:03;;;;;;;5.68;1.70;;;7.30;99.90;;;;;;5055735;28;20131;-64
2022/04/05 00:58:31;;;;;;;3.10;1.40;;;7.30;99.90;;;;;;5056486;28;20041;-67
2022/04/05 01:00:58;;;;;;;4.88;1.70;;;7.30;99.90;;;;;;5054765;28;20044;-67
2022/04/05 01:03:25;;;;;;;6.40;1.70;;;7.30;99.90;;;;;;5055287;28;20057;-67
2022/04/05 01:05:52;;;;;;;5.13;1.70;;;7.30;99.90;;;;;;5055657;28;20048;-67
2022/04/05 01:08:20;;;;;;;5.65;1.55;;;7.30;99.90;;;;;;5055462;28;20044;-66
2022/04/05 01:10:47;;;;;;;5.80;1.85;;;7.30;99.90;;;;;;5050155;28;20054;-66
2022/04/05 01:13:13;;;;;;;5.53;1.77;;;7.30;99.90;;;;;;5036043;28;20370;-67
2022/04/05 01:15:39;;;;;;;4.68;1.70;;;7.30;99.90;;;;;;5036295;28;20041;-66
2022/04/05 01:18:05;;;;;;;5.00;1.92;;;7.20;99.90;;;;;;5035156;28;20041;-66
2022/04/05 01:20:32;;;;;;;6.97;1.80;;;7.30;99.90;;;;;;5040534;28;20474;-66
2022/04/05 01:22:58;;;;;;;8.25;1.85;;;7.30;99.90;;;;;;5054682;28;20068;-66
2022/04/05 01:25:24;;;;;;;9.60;2.13;;;7.30;99.90;;;;;;5055985;28;20119;-67
2022/04/05 01:27:51;;;;;;;6.43;2.10;;;7.30;99.90;;;;;;5056123;28;20041;-66
2022/04/05 01:30:18;;;;;;;7.85;2.10;;;7.20;99.90;;;;;;5037440;28;20037;-67
2022/04/05 01:32:44;;;;;;;7.82;2.00;;;7.30;99.90;;;;;;5054722;28;20056;-68
2022/04/05 01:35:11;;;;;;;6.70;2.30;;;7.30;99.90;;;;;;5054608;28;20102;-67
2022/04/05 01:37:36;;;;;;;7.68;1.95;;;7.30;99.90;;;;;;5054676;28;20052;-67
2022/04/05 01:40:03;;;;;;;6.40;2.15;;;7.20;99.90;;;;;;5055182;28;20033;-67
2022/04/05 01:42:30;;;;;;;6.30;1.95;;;7.20;99.90;;;;;;5055825;28;20041;-66
2022/04/05 01:44:56;;;;;;;6.90;2.22;;;7.20;99.90;;;;;;5055806;28;20120;-67
2022/04/05 01:47:21;;;;;;;6.53;1.70;;;7.20;99.90;;;;;;5054072;28;20120;-67
2022/04/05 01:49:51;;;;;;;6.07;1.73;;;7.20;99.90;;;;;;5055144;28;20095;-67
2022/04/05 01:52:17;;;;;;;6.80;2.35;;;7.20;99.90;;;;;;5054269;28;20092;-67
2022/04/05 01:54:43;;;;;;;7.45;1.90;;;7.20;99.90;;;;;;5054844;28;20122;-69
2022/04/05 01:57:09;;;;;;;3.40;1.80;;;7.20;99.90;;;;;;5055545;28;20063;-67
2022/04/05 01:59:37;;;;;;;5.72;1.90;;;7.20;99.90;;;;;;5054228;28;20045;-67
2022/04/05 02:02:08;;;;;;;6.50;1.90;;;7.20;99.90;;;;;;5052898;28;20037;-68
2022/04/05 02:04:34;;;;;;;3.83;1.58;;;7.20;99.90;;;;;;5038009;28;20429;-69
2022/04/05 02:07:00;;;;;;;6.38;1.67;;;7.20;99.90;;;;;;5054279;28;20105;-67
2022/04/05 02:09:26;;;;;;;5.68;2.25;;;7.10;99.90;;;;;;5053964;28;20131;-67
2022/04/05 02:11:53;;;;;;;4.85;1.65;;;7.10;99.90;;;;;;5054039;28;20152;-67
2022/04/05 02:14:22;;;;;;;9.93;1.85;;;7.20;99.90;;;;;;5055358;28;20119;-68
2022/04/05 02:16:47;;;;;;;4.00;1.50;;;7.10;99.90;;;;;;5055148;28;20068;-67
2022/04/05 02:19:13;;;;;;;4.93;1.45;;;7.10;99.90;;;;;;5053393;28;20037;-67
2022/04/05 02:21:38;;;;;;;5.65;1.60;;;7.10;99.90;;;;;;5053380;28;20041;-67
2022/04/05 02:24:06;;;;;;;3.83;1.60;;;7.10;99.90;;;;;;5055008;28;20044;-67
2022/04/05 02:26:32;;;;;;;4.25;1.60;;;7.10;99.90;;;;;;5037287;28;20052;-67
2022/04/05 02:28:58;;;;;;;3.47;1.58;;;7.10;99.90;;;;;;5053450;28;20045;-67
2022/04/05 02:31:24;;;;;;;4.57;1.50;;;7.10;99.90;;;;;;5053466;28;20128;-69
2022/04/05 02:33:49;;;;;;;5.88;1.85;;;7.10;99.90;;;;;;5053934;28;20063;-67
2022/04/05 02:36:15;;;;;;;5.50;1.60;;;7.10;99.90;;;;;;5054553;28;20547;-67
2022/04/05 02:38:41;;;;;;;4.57;1.80;;;7.10;99.90;;;;;;5053132;28;20040;-67
2022/04/05 02:41:06;;;;;;;3.45;1.40;;;7.10;99.90;;;;;;5053276;28;20044;-67
2022/04/05 02:43:35;;;;;;;7.78;1.80;;;7.10;99.90;;;;;;5054131;28;20131;-67
2022/04/05 02:46:02;;;;;;;5.80;2.10;;;7.10;99.90;;;;;;5054555;28;20040;-66
2022/04/05 02:48:29;;;;;;;5.55;1.80;;;7.10;99.90;;;;;;5054219;28;20065;-67
2022/04/05 02:50:54;;;;;;;6.50;1.85;;;7.10;99.90;;;;;;5054258;28;20049;-68
2022/04/05 02:53:20;;;;;;;4.60;1.63;;;7.10;99.90;;;;;;5053251;28;20037;-67
2022/04/05 02:55:46;;;;;;;5.28;1.77;;;7.10;99.90;;;;;;5054521;28;20048;-69
2022/04/05 02:58:12;;;;;;;5.53;1.70;;;7.10;99.90;;;;;;5053140;28;20091;-67
2022/04/05 03:00:38;;;;;;;6.03;2.20;;;7.10;99.90;;;;;;5052766;28;20080;-67
2022/04/05 03:03:04;;;;;;;8.20;2.20;;;7.10;99.90;;;;;;5052783;28;20535;-67
2022/04/05 03:05:31;;;;;;;6.28;2.30;;;7.10;99.90;;;;;;5053221;28;20484;-68
2022/04/05 03:07:57;;;;;;;5.55;2.08;;;7.10;99.90;;;;;;5053169;28;20033;-67
2022/04/05 03:10:25;;;;;;;5.85;2.15;;;7.10;99.90;;;;;;5053732;28;20028;-68
2022/04/05 03:12:50;;;;;;;6.97;2.65;;;7.10;99.90;;;;;;5053865;28;20473;-68
2022/04/05 03:15:16;;;;;;;8.23;2.75;;;7.20;99.90;;;;;;5053653;28;20040;-68
2022/04/05 03:17:45;;;;;;;4.47;2.30;;;7.20;99.90;;;;;;5052722;28;20049;-67
2022/04/05 03:20:14;;;;;;;6.90;2.38;;;7.20;99.90;;;;;;5052348;28;20041;-67
2022/04/05 03:22:43;;;;;;;8.32;2.50;;;7.20;99.90;;;;;;5052655;28;20084;-67
2022/04/05 03:25:12;;;;;;;7.88;2.58;;;7.20;99.90;;;;;;5053267;28;20132;-68
2022/04/05 03:27:42;;;;;;;6.68;2.60;;;7.20;99.90;;;;;;5053992;28;20128;-69
2022/04/05 03:30:13;;;;;;;8.18;2.58;;;7.20;99.90;;;;;;5052101;28;20063;-67
2022/04/05 03:32:39;;;;;;;9.60;3.08;;;7.30;99.90;;;;;;5053907;28;20033;-67
2022/04/05 03:35:06;;;;;;;8.77;3.13;;;7.20;99.90;;;;;;5052841;28;20037;-67
2022/04/05 03:37:32;;;;;;;10.55;3.20;;;7.30;99.90;;;;;;5053068;28;20088;-67
2022/04/05 03:39:59;;;;;;;5.45;2.88;;;7.30;99.90;;;;;;5052485;28;20080;-67
2022/04/05 03:42:25;;;;;;;9.38;3.60;;;7.30;99.90;;;;;;5052754;28;20052;-69
2022/04/05 03:44:50;;;;;;;9.90;3.30;;;7.30;99.90;;;;;;5052845;28;20048;-67
2022/04/05 03:47:16;;;;;;;8.23;3.58;;;7.30;99.90;;;;;;5053593;28;20029;-68
2022/04/05 03:49:42;;;;;;;6.95;3.25;;;7.30;99.90;;;;;;5051464;28;20140;-69
2022/04/05 03:52:08;;;;;;;6.10;3.45;;;7.20;99.90;;;;;;5052293;28;20095;-66
2022/04/05 03:54:34;;;;;;;7.25;3.55;;;7.20;99.90;;;;;;5053630;28;20063;-67
2022/04/05 03:56:59;;;;;;;8.40;3.78;;;7.30;99.90;;;;;;5052555;28;20052;-67
2022/04/05 03:59:28;;;;;;;7.35;3.50;;;7.30;99.90;;;;;;5053500;28;20044;-66
2022/04/05 04:01:54;;;;;;;8.75;3.20;;;7.20;99.90;;;;;;5052173;28;20075;-67
2022/04/05 04:04:20;;;;;;;6.88;3.33;;;7.20;99.90;;;;;;5052401;28;20327;-66
2022/04/05 04:06:45;;;;;;;6.53;3.17;;;7.20;99.90;;;;;;5052525;28;20045;-67
2022/04/05 04:09:14;;;;;;;6.45;2.88;;;7.20;99.90;;;;;;5052434;28;20048;-66
2022/04/05 04:11:44;;;;;;;6.50;2.80;;;7.20;99.90;;;;;;5052163;28;20475;-67
2022/04/05 04:14:10;;;;;;;8.15;2.88;;;7.20;99.90;;;;;;5052604;28;20415;-65
2022/04/05 04:16:36;;;;;;;7.28;2.72;;;7.20;99.90;;;;;;5053379;28;20130;-66
2022/04/05 04:19:01;;;;;;;5.00;2.38;;;7.20;99.90;;;;;;5052256;28;20045;-65
2022/04/05 04:21:27;;;;;;;6.45;2.85;;;7.20;99.90;;;;;;5052910;28;20041;-65
2022/04/05 04:23:53;;;;;;;4.80;2.40;;;7.20;99.90;;;;;;5053267;28;20370;-66
2022/04/05 04:26:18;;;;;;;5.22;2.65;;;7.10;99.90;;;;;;5055320;28;20116;-65
2022/04/05 04:28:44;;;;;;;4.75;2.50;;;7.10;99.90;;;;;;5056532;28;20478;-63
2022/04/05 04:31:10;;;;;;;7.35;2.92;;;7.10;99.90;;;;;;5056453;28;20114;-67
2022/04/05 04:33:37;;;;;;;6.13;2.72;;;7.10;99.90;;;;;;5051217;28;20076;-65
2022/04/05 04:36:03;;;;;;;7.38;2.80;;;7.10;99.90;;;;;;5050971;28;20033;-66
2022/04/05 04:38:28;;;;;;;7.93;2.90;;;7.10;99.90;;;;;;5056043;28;20094;-66
2022/04/05 04:40:54;;;;;;;5.93;2.33;;;7.10;99.90;;;;;;5055694;28;20355;-67
2022/04/05 04:43:21;;;;;;;6.85;2.60;;;7.20;99.90;;;;;;5056066;28;20036;-64
2022/04/05 04:45:47;;;;;;;6.57;2.80;;;7.20;99.90;;;;;;5055645;28;20049;-65
2022/04/05 04:48:12;;;;;;;7.07;2.58;;;7.20;99.90;;;;;;5054297;28;20029;-63
2022/04/05 04:50:38;;;;;;;6.63;2.78;;;7.20;99.90;;;;;;5054828;28;20037;-65
2022/04/05 04:53:04;;;;;;;6.80;2.42;;;7.20;99.90;;;;;;5055917;28;20112;-64
2022/04/05 04:55:32;;;;;;;6.75;2.40;;;7.20;99.90;;;;;;5037911;28;20127;-64
2022/04/05 04:57:58;;;;;;;5.47;2.10;;;7.10;99.90;;;;;;5055351;28;20041;-64
2022/04/05 05:00:27;;;;;;;7.35;2.00;;;7.10;99.90;;;;;;5054608;28;20048;-64
2022/04/05 05:02:52;;;;;;;4.95;2.15;;;7.10;99.90;;;;;;5055457;28;20086;-64
2022/04/05 05:05:19;;;;;;;6.03;2.13;;;7.00;99.90;;;;;;5053918;28;20045;-63
2022/04/05 05:07:47;;;;;;;6.95;2.08;;;7.00;99.90;;;;;;5053858;28;20376;-63
2022/04/05 05:10:13;;;;;;;5.85;2.00;;;7.10;99.90;;;;;;5052662;28;20143;-63
2022/04/05 05:12:40;;;;;;;7.05;2.10;;;7.00;99.90;;;;;;5053062;28;20440;-62
2022/04/05 05:15:08;;;;;;;8.82;2.72;;;7.10;99.90;;;;;;5028809;28;20045;-62
2022/04/05 05:17:34;;;;;;;5.97;2.50;;;7.10;99.90;;;;;;5035770;28;20044;-63
2022/04/05 05:20:00;;;;;;;9.93;2.72;;;7.10;99.90;;;;;;5035395;28;20108;-63
2022/04/05 05:22:26;;;;;;;8.50;2.92;;;7.10;99.90;;;;;;5054365;28;20120;-66
2022/04/05 05:24:51;;;;;;;8.15;3.00;;;7.20;99.90;;;;;;5052278;28;20378;-64
2022/04/05 05:27:17;;;;;;;8.90;3.40;;;7.20;99.90;;;;;;5036198;28;20041;-65
2022/04/05 05:29:43;;;;;;;9.15;3.35;;;7.20;99.90;;;;;;5035568;28;20484;-62
2022/04/05 05:32:08;;;;;;;5.32;2.28;;;7.30;99.90;;;;;;5037615;28;20049;-63
2022/04/05 05:34:34;;;;;;;11.05;4.15;;;7.30;99.90;;;;;;5035872;28;20045;-63
2022/04/05 05:37:00;;;;;;;6.80;2.47;;;7.20;99.90;;;;;;5035806;28;20047;-63
2022/04/05 05:39:26;;;;;;;8.50;2.17;;;7.20;99.90;;;;;;5035257;28;20045;-64
2022/04/05 05:41:51;;;;;;;5.90;2.05;;;7.20;99.90;;;;;;5044970;28;20582;-67
2022/04/05 05:44:17;;;;;;;7.60;2.00;;;7.10;99.90;;;;;;5048515;28;20522;-66
2022/04/05 05:46:43;;;;;;;4.18;1.45;;;7.10;99.90;;;;;;5055168;28;20049;-65
2022/04/05 05:49:09;;;;;;;5.70;1.50;;;7.00;99.90;;;;;;5037489;28;20044;-65
2022/04/05 05:51:34;;;;;;;4.82;1.40;;;7.10;99.90;;;;;;5044521;28;20045;-64
2022/04/05 05:54:00;;;;;;;4.50;1.30;;;7.00;99.90;;;;;;5055013;28;20075;-64
2022/04/05 05:56:25;;;;;;;3.47;1.30;;;7.00;99.90;;;;;;5055498;28;20041;-63
2022/04/05 05:58:51;;;;;;;5.00;1.45;;;7.10;99.90;;;;;;5054465;28;20048;-64
2022/04/05 06:01:17;;;;;;;3.22;1.13;;;7.00;99.90;;;;;;5054706;28;20028;-64
2022/04/05 06:03:43;;;;;;;4.28;1.20;;;7.00;99.90;;;;;;5054739;28;20029;-64
2022/04/05 06:06:09;;;;;;;3.45;1.30;;;7.00;99.90;;;;;;5055230;28;20097;-65
2022/04/05 06:08:34;;;;;;;4.32;1.30;;;6.90;99.90;;;;;;5040722;28;20045;-64
2022/04/05 06:11:01;;;;;;;5.05;1.50;;;6.90;99.90;;;;;;5041406;28;20033;-65
2022/04/05 06:13:27;;;;;;;3.75;1.38;;;7.00;99.90;;;;;;5053636;28;20044;-64
2022/04/05 06:15:53;;;;;;;4.55;1.35;;;7.00;99.90;;;;;;5053553;28;20047;-64
2022/04/05 06:18:19;;;;;;;2.58;1.42;;;7.10;99.90;;;;;;5053358;28;20028;-64
2022/04/05 06:20:44;;;;;;;4.50;1.33;;;7.10;99.90;;;;;;5053157;28;20044;-64
2022/04/05 06:23:10;;;;;;;4.63;1.70;;;7.00;99.90;;;;;;5053153;28;20462;-64
2022/04/05 06:25:37;;;;;;;5.55;2.20;;;7.10;99.90;;;;;;5045008;28;20462;-64
2022/04/05 06:28:06;;;;;;;9.43;2.83;;;7.10;99.90;;;;;;5033693;28;20063;-64
2022/04/05 06:30:33;;;;;;;13.82;3.97;;;7.10;99.90;;;;;;5037832;28;20037;-64
2022/04/05 06:33:13;;;;;;;12.32;3.28;;;7.00;99.90;;;;;;5054401;28;20076;-64
2022/04/05 06:35:42;;;;;;;15.77;4.65;;;7.10;99.90;;;;;;5045811;28;20056;-65
2022/04/05 06:38:08;;;;;;;12.18;3.10;;;7.10;99.90;;;;;;5040429;28;20043;-64
2022/04/05 06:40:34;;;;;;;7.53;2.28;;;7.10;99.90;;;;;;5053914;28;20063;-63
2022/04/05 06:42:59;;;;;;;6.25;1.90;;;7.10;99.90;;;;;;5054238;28;20118;-64
2022/04/05 06:45:25;;;;;;;6.38;1.88;;;7.10;99.90;;;;;;5054324;28;20102;-65
2022/04/05 06:47:52;;;;;;;2.92;1.27;;;7.10;99.90;;;;;;5054003;28;20508;-66
2022/04/05 06:50:24;;;;;;;3.85;1.30;;;7.10;99.90;;;;;;5053283;28;20079;-64
2022/04/05 06:52:53;;;;;;;3.42;1.05;;;7.20;99.90;;;;;;5054557;28;20119;-64
2022/04/05 06:55:18;;;;;;;3.28;0.88;;;7.20;99.90;;;;;;5054204;28;20044;-64
2022/04/05 06:57:44;;;;;;;2.25;1.00;;;7.20;99.90;;;;;;5054229;28;20343;-64
2022/04/05 07:00:11;;;;;;;2.78;1.10;;;7.30;99.90;;;;;;5053835;28;20040;-64
2022/04/05 07:02:38;;;;;;;2.58;1.17;;;7.30;99.90;;;;;;5052774;28;20394;-64
2022/04/05 07:05:04;;;;;;;3.25;1.30;;;7.30;99.90;;;;;;5054222;28;20045;-64
2022/04/05 07:07:30;;;;;;;1.88;0.88;;;7.30;99.90;;;;;;5053943;28;20041;-63
2022/04/05 07:09:56;;;;;;;4.28;1.15;;;7.40;99.90;;;;;;5053702;28;20063;-63
2022/04/05 07:12:23;;;;;;;2.17;1.10;;;7.40;99.90;;;;;;5050196;28;20053;-66
2022/04/05 07:14:49;;;;;;;2.58;0.98;;;7.40;99.90;;;;;;5045201;28;20040;-64
2022/04/05 07:17:15;;;;;;;1.95;0.55;;;7.40;99.90;;;;;;5053814;28;20098;-64
2022/04/05 07:19:40;;;;;;;1.50;0.65;;;7.40;99.90;;;;;;5053820;28;20033;-66
2022/04/05 07:22:06;;;;;;;0.88;0.60;;;7.40;99.90;;;;;;5052088;28;20056;-63
2022/04/05 07:24:33;;;;;;;3.25;0.80;;;7.50;99.90;;;;;;5051499;28;20049;-66
2022/04/05 07:27:01;;;;;;;1.58;0.60;;;7.50;99.90;;;;;;5052529;28;20319;-64
2022/04/05 07:29:32;;;;;;;2.33;0.63;;;7.50;99.90;;;;;;5050045;28;20370;-66
2022/04/05 07:32:00;;;;;;;1.55;0.70;;;7.50;99.90;;;;;;5050167;28;20524;-65
2022/04/05 07:34:25;;;;;;;3.45;0.90;;;7.50;99.90;;;;;;5053872;28;20098;-65
2022/04/05 07:36:51;;;;;;;1.83;0.88;;;7.60;99.90;;;;;;5054042;28;20450;-64
2022/04/05 07:39:19;;;;;;;3.95;1.10;;;7.60;99.90;;;;;;5052970;28;20114;-65
2022/04/05 07:41:44;;;;;;;3.45;1.00;;;7.70;99.90;;;;;;5049079;28;20366;-64
2022/04/05 07:44:10;;;;;;;3.22;1.05;;;7.70;99.90;;;;;;5031339;28;20471;-65
2022/04/05 07:46:35;;;;;;;4.88;1.65;;;7.70;99.90;;;;;;5032554;28;20099;-65
2022/04/05 07:49:01;;;;;;;3.53;1.10;;;7.80;99.90;;;;;;5033202;28;20037;-65
2022/04/05 07:51:27;;;;;;;4.55;1.77;;;7.90;99.90;;;;;;5042318;28;20347;-65
2022/04/05 07:53:53;;;;;;;2.90;1.20;;;7.80;99.90;;;;;;5053077;28;20040;-65
2022/04/05 07:56:19;;;;;;;2.50;1.08;;;7.90;99.90;;;;;;5046165;28;20151;-65
2022/04/05 07:58:45;;;;;;;2.47;1.00;;;7.90;99.90;;;;;;5032686;28;20053;-65
2022/04/05 08:01:11;;;;;;;3.55;1.30;;;7.90;99.90;;;;;;5044825;28;20431;-63
2022/04/05 08:03:38;;;;;;;4.00;1.60;;;8.00;99.90;;;;;;5056825;28;20459;-62
2022/04/05 08:06:03;;;;;;;4.00;1.70;;;8.00;99.90;;;;;;5056239;28;20056;-65
2022/04/05 08:08:30;;;;;;;2.90;1.75;;;8.00;99.90;;;;;;5057512;28;20032;-64
2022/04/05 08:10:56;;;;;;;2.30;1.60;;;8.10;99.90;;;;;;5057058;28;20051;-64
2022/04/05 08:13:22;;;;;;;3.25;1.42;;;8.10;99.90;;;;;;5056822;28;20056;-66
2022/04/05 08:15:48;;;;;;;3.33;1.40;;;8.20;99.90;;;;;;5057311;28;20086;-65
2022/04/05 08:18:13;;;;;;;2.30;1.20;;;8.30;99.90;;;;;;5056323;28;20045;-65
2022/04/05 08:20:41;;;;;;;4.40;1.73;;;8.30;99.90;;;;;;5057184;28;20168;-64
2022/04/05 08:23:08;;;;;;;2.33;1.58;;;8.30;99.90;;;;;;5056199;28;20191;-63
2022/04/05 08:25:34;;;;;;;2.70;1.50;;;8.20;99.90;;;;;;5055857;28;20041;-62
2022/04/05 08:28:00;;;;;;;3.30;1.80;;;8.30;99.90;;;;;;5056227;28;20059;-63
2022/04/05 08:30:26;;;;;;;3.28;1.90;;;8.30;99.90;;;;;;5056945;28;20126;-63
2022/04/05 08:32:52;;;;;;;5.75;2.33;;;8.40;99.90;;;;;;5055325;28;20103;-62
2022/04/05 08:35:19;;;;;;;4.63;2.30;;;8.30;99.90;;;;;;5056640;28;20052;-62
2022/04/05 08:37:46;;;;;;;4.30;2.65;;;8.40;99.90;;;;;;5056763;28;20060;-63
2022/04/05 08:40:14;;;;;;;5.88;3.08;;;8.40;99.90;;;;;;5055839;28;20041;-62
2022/04/05 08:42:46;;;;;;;5.65;2.92;;;8.40;99.90;;;;;;5045311;28;20474;-63
2022/04/05 08:45:14;;;;;;;4.80;2.97;;;8.50;99.90;;;;;;5036792;28;20060;-62
2022/04/05 08:47:47;;;;;;;5.53;2.80;;;8.60;99.90;;;;;;5036710;28;20037;-63
2022/04/05 08:50:15;;;;;;;7.85;2.97;;;8.60;99.90;;;;;;5036800;28;20037;-63
2022/04/05 08:52:43;;;;;;;4.80;2.80;;;8.60;99.90;;;;;;5055958;28;20121;-62
2022/04/05 08:55:09;;;;;;;6.35;2.92;;;8.70;99.90;;;;;;5056637;28;20044;-63
2022/04/05 08:57:34;;;;;;;6.93;3.10;;;8.80;99.90;;;;;;5055309;28;20083;-63
2022/04/05 09:00:02;;;;;;;5.28;2.72;;;8.80;99.90;;;;;;5056643;28;20047;-63
2022/04/05 09:02:27;;;;;;;4.57;2.95;;;8.80;99.90;;;;;;5054341;28;20041;-62
2022/04/05 09:04:53;;;;;;;5.18;3.40;;;8.90;99.90;;;;;;5056519;28;20033;-63
2022/04/05 09:07:21;;;;;;;5.13;3.47;;;8.90;99.90;;;;;;5056208;28;20125;-62
2022/04/05 09:10:08;;;;;;;5.05;3.08;;;9.00;99.90;;;;;;5055400;28;20033;-63
2022/04/05 09:12:49;;;;;;;6.85;4.07;;;9.00;99.90;;;;;;5054976;28;20380;-63
2022/04/05 09:15:21;;;;;;;5.47;3.88;;;9.00;99.90;;;;;;5055184;28;20118;-65
2022/04/05 09:17:48;;;;;;;6.93;4.50;;;9.10;99.90;;;;;;5054946;28;20041;-65
2022/04/05 09:20:17;;;;;;;8.05;5.13;;;9.10;99.90;;;;;;5056158;28;20109;-65
2022/04/05 09:22:44;;;;;;;9.15;5.00;;;9.20;99.90;;;;;;5054926;28;20049;-65
2022/04/05 09:25:12;;;;;;;7.65;5.10;;;9.20;99.90;;;;;;5056034;28;20049;-65
2022/04/05 09:27:56;;;;;;;7.93;5.32;;;9.20;99.90;;;;;;5055795;28;20382;-65
2022/04/05 09:30:23;;;;;;;8.70;6.03;;;9.20;99.90;;;;;;5056025;28;20040;-65
2022/04/05 09:32:50;;;;;;;9.00;6.47;;;9.30;99.90;;;;;;5054215;28;20052;-65
2022/04/05 09:35:18;;;;;;;11.20;6.78;;;9.30;99.90;;;;;;5038018;28;20081;-66
2022/04/05 09:37:44;;;;;;;10.23;7.07;;;9.30;99.90;;;;;;5055814;28;20036;-65
2022/04/05 09:40:23;;;;;;;11.73;8.25;;;9.40;99.90;;;;;;5055866;28;20041;-65
2022/04/05 09:43:14;;;;;;;12.73;8.45;;;9.50;99.90;;;;;;5043597;28;20034;-67
2022/04/05 09:45:54;;;;;;;11.65;7.63;;;9.60;99.90;;;;;;5035860;28;20124;-67
2022/04/05 09:48:23;;;;;;;11.65;7.55;;;9.70;99.90;;;;;;5035411;28;20041;-65
2022/04/05 09:51:06;;;;;;;10.43;6.68;;;9.90;99.90;;;;;;5038526;28;20103;-65
2022/04/05 09:53:38;;;;;;;8.35;5.50;;;10.10;99.90;;;;;;5055113;28;20056;-65
2022/04/05 09:56:09;;;;;;;7.45;4.90;;;10.20;99.90;;;;;;5055600;28;20041;-66
2022/04/05 09:58:35;;;;;;;7.10;4.80;;;10.30;99.90;;;;;;5054241;28;20049;-65
2022/04/05 10:01:08;;;;;;;6.88;4.32;;;10.30;99.90;;;;;;5055155;28;20083;-65
2022/04/05 10:03:35;;;;;;;6.32;4.25;;;10.40;99.90;;;;;;5053839;28;20040;-66
2022/04/05 10:06:02;;;;;;;6.78;4.40;;;10.50;99.90;;;;;;5055318;28;20045;-66
2022/04/05 10:08:33;;;;;;;8.50;4.80;;;10.40;99.90;;;;;;5054952;28;20381;-66
2022/04/05 10:11:00;;;;;;;7.18;4.40;;;10.40;99.90;;;;;;5053821;28;20116;-66
2022/04/05 10:13:29;;;;;;;8.10;4.72;;;10.30;99.90;;;;;;5054546;28;20049;-66
2022/04/05 10:15:56;;;;;;;6.70;4.43;;;10.30;99.90;;;;;;5051226;28;20052;-67
2022/04/05 10:18:24;;;;;;;7.68;5.00;;;10.40;99.90;;;;;;5033701;28;20045;-66
2022/04/05 10:20:51;;;;;;;6.40;4.68;;;10.40;99.90;;;;;;5038728;28;20518;-66
2022/04/05 10:23:22;;;;;;;8.82;4.75;;;10.50;99.90;;;;;;5052198;28;20072;-67
2022/04/05 10:25:52;;;;;;;5.75;4.45;;;10.50;99.90;;;;;;5055016;28;20052;-66
2022/04/05 10:28:22;;;;;;;7.00;4.68;;;10.50;99.90;;;;;;5054922;28;20048;-66
2022/04/05 10:30:59;;;;;;;8.27;4.88;;;10.40;99.90;;;;;;5053343;28;20053;-66
2022/04/05 10:33:28;;;;;;;7.50;4.80;;;10.30;99.90;;;;;;5053124;28;20071;-65
2022/04/05 10:36:00;;;;;;;10.95;5.15;;;10.30;99.90;;;;;;5054778;28;20045;-66
2022/04/05 10:38:27;;;;;;;9.25;5.20;;;10.20;99.90;;;;;;5053613;28;20386;-66
2022/04/05 10:41:16;;;;;;;11.93;5.25;;;10.20;99.90;;;;;;5053625;28;20049;-66
2022/04/05 10:43:43;;;;;;;10.98;5.55;;;10.30;99.90;;;;;;5053193;28;20045;-66
2022/04/05 10:46:10;;;;;;;9.35;5.18;;;10.30;99.90;;;;;;5054351;28;20037;-66
2022/04/05 10:48:56;;;;;;;12.20;5.30;;;10.40;99.90;;;;;;5054506;28;20052;-66
2022/04/05 10:51:48;;;;;;;9.63;5.57;;;10.40;99.90;;;;;;5052833;28;20102;-66
2022/04/05 10:54:19;;;;;;;8.43;5.63;;;10.40;99.90;;;;;;5051646;28;20053;-66
2022/04/05 10:57:20;;;;;;;12.45;6.03;;;10.30;99.90;;;;;;5053169;28;20099;-66
2022/04/05 10:59:53;;;;;;;15.20;6.18;;;10.30;99.90;;;;;;5053016;28;20057;-68
2022/04/05 11:02:29;;;;;;;10.98;6.55;;;10.30;99.90;;;;;;5052382;28;20079;-67
2022/04/05 11:05:21;;;;;;;13.45;6.43;;;10.30;99.90;;;;;;5054594;28;20411;-67
2022/04/05 11:07:52;;;;;;;13.60;6.97;;;10.20;99.90;;;;;;5051415;28;20096;-68
2022/04/05 11:10:19;;;;;;;17.30;7.05;;;10.30;99.90;;;;;;5054262;28;20112;-66
2022/04/05 11:12:45;;;;;;;15.43;6.63;;;10.30;99.90;;;;;;5053573;28;20048;-67
2022/04/05 11:15:14;;;;;;;14.23;7.38;;;10.40;99.90;;;;;;5052954;28;20037;-68
2022/04/05 11:17:42;;;;;;;14.90;7.15;;;10.50;99.90;;;;;;5052742;28;20381;-68
2022/04/05 11:20:09;;;;;;;13.57;6.32;;;10.50;99.90;;;;;;5036222;28;20037;-66
2022/04/05 11:22:37;;;;;;;13.32;7.03;;;10.50;99.90;;;;;;5052279;28;20057;-67
2022/04/05 11:25:14;;;;;;;13.80;5.93;;;10.40;99.90;;;;;;5053987;28;20124;-67
2022/04/05 11:27:45;;;;;;;11.02;6.72;;;10.40;99.90;;;;;;5053895;28;20047;-67
2022/04/05 11:30:23;;;;;;;11.68;6.00;;;10.50;99.90;;;;;;5040062;28;20517;-68
2022/04/05 11:33:21;;;;;;;12.45;5.40;;;10.60;99.90;;;;;;5033763;28;20060;-67
2022/04/05 11:35:49;;;;;;;14.98;5.65;;;10.60;99.90;;;;;;5036154;28;20034;-68
2022/04/05 11:38:18;;;;;;;13.20;6.43;;;10.60;99.90;;;;;;5050756;28;20044;-69
2022/04/05 11:40:48;;;;;;;13.88;6.93;;;10.80;99.90;;;;;;5052971;28;20075;-68
2022/04/05 11:43:27;;;;;;;15.35;7.03;;;10.70;99.90;;;;;;5033061;28;20048;-70
2022/04/05 11:45:55;;;;;;;14.20;7.20;;;10.70;99.90;;;;;;5032789;28;20033;-67
2022/04/05 11:48:22;;;;;;;15.38;6.68;;;10.70;99.90;;;;;;5033681;28;20479;-66
2022/04/05 11:50:48;;;;;;;11.93;7.00;;;10.60;99.90;;;;;;5036580;28;20133;-66
2022/04/05 11:53:26;;;;;;;12.63;6.93;;;10.70;99.90;;;;;;5053226;28;20055;-66
2022/04/05 11:56:07;;;;;;;12.65;6.72;;;10.60;99.90;;;;;;5052571;28;20424;-65
2022/04/05 11:58:38;;;;;;;14.13;6.05;;;10.50;99.90;;;;;;5053348;28;20036;-65
2022/04/05 12:01:05;;;;;;;16.48;6.35;;;10.50;99.90;;;;;;5053436;28;20373;-64
2022/04/05 12:03:45;;;;;;;15.27;6.90;;;10.50;99.90;;;;;;5053152;28;20116;-66
2022/04/05 12:06:32;;;;;;;16.63;7.05;;;10.60;99.90;;;;;;5052790;28;20110;-67
2022/04/05 12:09:10;;;;;;;22.10;8.45;;;10.70;99.90;;;;;;5052538;28;20346;-66
2022/04/05 12:11:38;;;;;;;15.32;7.05;;;10.70;99.90;;;;;;5052107;28;20055;-67
2022/04/05 12:14:11;;;;;;;21.38;8.60;;;10.70;99.90;;;;;;5053490;28;20055;-66
2022/04/05 12:16:49;;;;;;;21.05;7.97;;;10.80;99.90;;;;;;5053411;28;20098;-66
2022/04/05 12:19:41;;;;;;;20.88;8.32;;;10.70;99.90;;;;;;5052264;28;20868;-66
2022/04/05 12:22:10;;;;;;;17.35;6.85;;;10.70;99.90;;;;;;5052561;28;20056;-66
2022/04/05 12:24:50;;;;;;;19.27;7.78;;;10.70;99.90;;;;;;5053252;28;20106;-66
2022/04/05 12:27:19;;;;;;;14.02;7.35;;;10.70;99.90;;;;;;5053126;28;20450;-66
2022/04/05 12:29:45;;;;;;;18.33;7.47;;;10.70;99.90;;;;;;5052328;28;20048;-67
2022/04/05 12:32:12;;;;;;;18.35;6.85;;;10.70;99.90;;;;;;5038707;28;20029;-67
2022/04/05 12:34:41;;;;;;;13.38;6.72;;;10.70;99.90;;;;;;5032006;28;20470;-66
2022/04/05 12:37:17;;;;;;;23.70;7.50;;;10.80;99.90;;;;;;5032548;28;20060;-66
2022/04/05 12:39:48;;;;;;;16.88;6.40;;;10.80;99.90;;;;;;5033087;28;20455;-66
2022/04/05 12:42:14;;;;;;;15.60;7.03;;;11.00;99.90;;;;;;5046498;28;20045;-66
2022/04/05 12:44:48;;;;;;;12.63;5.97;;;11.00;99.90;;;;;;5053010;28;20090;-65
2022/04/05 12:47:22;;;;;;;14.48;6.65;;;10.90;99.90;;;;;;5042257;28;20046;-66
2022/04/05 12:49:54;;;;;;;13.70;6.50;;;10.80;99.90;;;;;;5035773;28;20037;-67
2022/04/05 12:52:25;;;;;;;16.70;7.28;;;10.80;99.90;;;;;;5051733;28;20382;-65
2022/04/05 12:54:58;;;;;;;13.15;6.85;;;10.80;99.90;;;;;;5038932;28;20513;-66
2022/04/05 12:57:31;;;;;;;17.38;6.50;;;10.70;99.90;;;;;;5055591;28;20064;-66